Yang Li Hu — BOGE — position and weather

sailwx.info

Track history (hours):
 
Tides and Currents Weather Stations Pressure Air Temp Water Temp Dewpoint Dewpoint Depression Visibility Wind Speed Wind Dir Waves Ship Positions

Yang Li Hu

Last reported at 2015-Mar-15 09:16 UTC. Time now 2015-Mar-27 22:14 UTC.
Position N 34°08' E 032°51'.
Warning: this ship's position is 12 days out of date.

Length 244 m; draft 13.6 m.

Type: Tanker. MMSI: 413975000.

Date/timePositionNaut miles runAvg speedWind from/ knotsBaromVisibWave heightAir tempDewpointWater temp
2015-Mar-15 09:16N 34°08' E 032°51'6 7.8
2015-Mar-15 08:33N 34°14' E 032°54'8 8.1
2015-Mar-15 07:34N 34°21' E 032°58'8 7.9
2015-Mar-15 06:34N 34°28' E 033°01'8 7.8
2015-Mar-15 05:34N 34°36' E 033°04'4 4.4
2015-Mar-15 04:32N 34°40' E 033°04'0 0.1
2015-Mar-15 03:32N 34°40' E 033°04'0 0.0
2015-Mar-15 02:32N 34°40' E 033°04'0 0.0
2015-Mar-15 01:32N 34°40' E 033°04'0 0.0
2015-Mar-15 00:32N 34°40' E 033°04'0 0.0
2015-Mar-14 23:32N 34°40' E 033°04'0 0.0
2015-Mar-14 22:32N 34°40' E 033°04'0 0.1
2015-Mar-14 21:32N 34°40' E 033°04'0 0.0
2015-Mar-14 20:32N 34°40' E 033°04'0 0.0
2015-Mar-14 19:32N 34°40' E 033°04'0 0.0
2015-Mar-14 18:32N 34°40' E 033°04'0 0.0
2015-Mar-14 17:32N 34°40' E 033°04'0 0.0
2015-Mar-14 16:32N 34°40' E 033°04'0 0.2
2015-Mar-14 15:32N 34°40' E 033°04'0 0.1
2015-Mar-14 14:32N 34°40' E 033°04'6 6.2
2015-Mar-14 13:34N 34°35' E 033°08'10 9.8
2015-Mar-14 12:33N 34°28' E 033°16'1 1.1
2015-Mar-14 11:29N 34°29' E 033°17'0 0.2
2015-Mar-14 10:32N 34°29' E 033°17'1 0.7
2015-Mar-14 09:32N 34°30' E 033°17'4 3.9
2015-Mar-14 08:29N 34°31' E 033°22'5 0.3
2015-Mar-13 13:13N 34°30' E 033°28'1 1.0
2015-Mar-13 12:13N 34°30' E 033°29'7 3.7
2015-Mar-13 10:12N 34°30' E 033°20'1 1.2
2015-Mar-13 09:34N 34°30' E 033°19'0 0.3
2015-Mar-13 08:34N 34°30' E 033°19'0 0.4
2015-Mar-13 07:33N 34°29' E 033°19'0 0.3
2015-Mar-13 06:34N 34°29' E 033°19'2 1.5
2015-Mar-13 05:34N 34°30' E 033°20'7 7.3
2015-Mar-13 04:32N 34°33' E 033°28'7 0.5
2015-Mar-12 14:19N 34°26' E 033°30'1 1.3
2015-Mar-12 13:31N 34°26' E 033°29'1 1.3
2015-Mar-12 12:25N 34°25' E 033°28'1 1.3
2015-Mar-12 11:31N 34°24' E 033°27'1 1.2
2015-Mar-12 10:22N 34°23' E 033°26'4 1.2
2015-Mar-12 07:07N 34°21' E 033°22'6 0.7
2015-Mar-11 22:31N 34°23' E 033°16'0 0.4
2015-Mar-11 21:31N 34°23' E 033°16'1 0.7
2015-Mar-11 20:31N 34°24' E 033°16'1 0.7
2015-Mar-11 19:31N 34°25' E 033°16'1 0.7
2015-Mar-11 18:31N 34°25' E 033°16'1 0.6
2015-Mar-11 17:31N 34°26' E 033°16'1 0.7
2015-Mar-11 16:22N 34°26' E 033°17'1 0.8
2015-Mar-11 15:13N 34°27' E 033°18'1 0.8
2015-Mar-11 14:28N 34°27' E 033°19'1 0.9
2015-Mar-11 13:28N 34°27' E 033°20'3 3.3
2015-Mar-11 12:31N 34°24' E 033°22'20 1.6
2015-Mar-11 00:07N 34°05' E 033°13'1 1.1
2015-Mar-10 23:28N 34°05' E 033°12'1 0.9
2015-Mar-10 22:31N 34°06' E 033°11'1 0.9
2015-Mar-10 21:28N 34°06' E 033°10'1 0.7
2015-Mar-10 20:31N 34°07' E 033°10'1 0.6
2015-Mar-10 19:31N 34°07' E 033°09'1 0.8
2015-Mar-10 18:13N 34°08' E 033°08'1 0.9
2015-Mar-10 17:31N 34°08' E 033°07'1 0.8
2015-Mar-10 16:31N 34°08' E 033°06'1 0.7
2015-Mar-10 15:31N 34°09' E 033°06'1 0.5
2015-Mar-10 14:25N 34°09' E 033°05'0 0.5
2015-Mar-10 13:31N 34°10' E 033°05'0 0.4
2015-Mar-10 12:31N 34°10' E 033°05'0 0.4
2015-Mar-10 11:31N 34°10' E 033°05'0 0.4
2015-Mar-10 10:25N 34°11' E 033°05'0 0.4
2015-Mar-10 09:31N 34°11' E 033°05'0 0.4
2015-Mar-10 08:31N 34°12' E 033°04'0 0.4
2015-Mar-10 07:31N 34°12' E 033°04'0 0.4
2015-Mar-10 06:31N 34°12' E 033°04'0 0.4
2015-Mar-10 05:31N 34°13' E 033°04'0 0.4
2015-Mar-10 04:31N 34°13' E 033°03'1 0.6
2015-Mar-10 03:28N 34°14' E 033°03'1 0.7
2015-Mar-10 02:22N 34°14' E 033°03'1 0.8
2015-Mar-10 01:31N 34°15' E 033°04'2 0.7
2015-Mar-09 22:28N 34°17' E 033°05'3 0.5
2015-Mar-09 16:13N 34°19' E 033°07'1 0.7
2015-Mar-09 15:28N 34°20' E 033°08'1 0.7
2015-Mar-09 13:33N 34°20' E 033°09'1 0.8
2015-Mar-09 12:33N 34°21' E 033°10'1 0.8
2015-Mar-09 11:34N 34°21' E 033°11'1 1.0
2015-Mar-09 10:34N 34°22' E 033°12'1 1.0
2015-Mar-09 09:31N 34°22' E 033°13'1 0.8
2015-Mar-09 08:34N 34°23' E 033°14'1 0.8
2015-Mar-09 07:34N 34°23' E 033°14'1 0.5
2015-Mar-09 06:22N 34°24' E 033°14'5 2.7
2015-Mar-09 04:34N 34°20' E 033°10'4 3.7
2015-Mar-09 03:33N 34°17' E 033°07'0 0.4
2015-Mar-09 02:33N 34°17' E 033°07'1 0.9
2015-Mar-09 01:34N 34°17' E 033°08'1 1.0
2015-Mar-09 00:27N 34°18' E 033°09'2 1.1
2015-Mar-08 22:28N 34°19' E 033°11'1 1.2
2015-Mar-08 21:30N 34°20' E 033°12'1 1.2
2015-Mar-08 20:33N 34°21' E 033°13'1 1.1
2015-Mar-08 19:33N 34°22' E 033°14'1 1.2
2015-Mar-08 18:34N 34°22' E 033°15'1 1.1
2015-Mar-08 17:34N 34°23' E 033°16'1 1.1
2015-Mar-08 16:34N 34°24' E 033°17'1 1.1
2015-Mar-08 15:33N 34°24' E 033°18'1 1.3
2015-Mar-08 14:33N 34°25' E 033°19'1 1.0
2015-Mar-08 13:34N 34°26' E 033°20'1 1.2
2015-Mar-08 12:33N 34°27' E 033°19'5 4.5
2015-Mar-08 11:33N 34°29' E 033°15'1 1.2
2015-Mar-08 10:34N 34°30' E 033°14'2 1.8
2015-Mar-08 09:34N 34°30' E 033°12'4 3.8
2015-Mar-08 08:33N 34°30' E 033°07'1 0.6
2015-Mar-08 07:33N 34°30' E 033°06'2 1.9
2015-Mar-08 06:33N 34°30' E 033°09'4 3.6
2015-Mar-08 05:33N 34°28' E 033°13'4 2.8
2015-Mar-08 04:12N 34°25' E 033°15'1 1.6
2015-Mar-08 03:33N 34°26' E 033°16'1 1.5
2015-Mar-08 02:33N 34°27' E 033°16'1 1.4
2015-Mar-08 01:33N 34°29' E 033°16'3 2.9
2015-Mar-08 00:33N 34°26' E 033°14'1 0.9
2015-Mar-07 23:33N 34°27' E 033°14'1 1.4
2015-Mar-07 22:33N 34°29' E 033°14'2 1.4
2015-Mar-07 21:12N 34°31' E 033°14'1 1.5
2015-Mar-07 20:33N 34°32' E 033°14'2 1.7
2015-Mar-07 19:31N 34°33' E 033°14'5 4.4
2015-Mar-07 18:21N 34°36' E 033°09'1 1.1
2015-Mar-07 17:33N 34°35' E 033°08'5 4.9
2015-Mar-07 16:33N 34°32' E 033°04'1010.2
2015-Mar-07 15:33N 34°32' E 032°51'1211.6
2015-Mar-07 14:33N 34°35' E 032°38'1111.2
2015-Mar-07 13:33N 34°38' E 032°25'45410.8
2015-Mar-05 19:24N 37°31' E 023°46'1011.7
2015-Mar-05 18:33N 37°41' E 023°41'1111.3
2015-Mar-05 17:33N 37°51' E 023°37'7 7.3
2015-Mar-05 16:33N 37°58' E 023°33'4 4.1
2015-Mar-05 15:30N 38°02' E 023°31'0 0.0
2015-Mar-05 14:18N 38°02' E 023°31'0 0.0
2015-Mar-05 13:33N 38°02' E 023°31'0 0.0
2015-Mar-05 12:30N 38°02' E 023°31'0 0.0
2015-Mar-05 11:15N 38°02' E 023°31'0 0.0
2015-Mar-05 10:24N 38°02' E 023°31'0 0.0
2015-Mar-05 09:30N 38°02' E 023°31'  
Track history (hours):
 
Tides and Currents Weather Stations Pressure Air Temp Water Temp Dewpoint Dewpoint Depression Visibility Wind Speed Wind Dir Waves Ship Positions

Yang Li Hu

Last reported at 2015-Mar-15 09:16 UTC. Time now 2015-Mar-27 22:14 UTC.
Position N 34°08' E 032°51'.
Warning: this ship's position is 12 days out of date.

Length 244 m; draft 13.6 m.

Type: Tanker. MMSI: 413975000.

Date/timePositionNaut miles runAvg speedWind from/ knotsBaromVisibWave heightAir tempDewpointWater temp
2015-Mar-15 09:16N 34°08' E 032°51'6 7.8
2015-Mar-15 08:33N 34°14' E 032°54'8 8.1
2015-Mar-15 07:34N 34°21' E 032°58'8 7.9
2015-Mar-15 06:34N 34°28' E 033°01'8 7.8
2015-Mar-15 05:34N 34°36' E 033°04'4 4.4
2015-Mar-15 04:32N 34°40' E 033°04'0 0.1
2015-Mar-15 03:32N 34°40' E 033°04'0 0.0
2015-Mar-15 02:32N 34°40' E 033°04'0 0.0
2015-Mar-15 01:32N 34°40' E 033°04'0 0.0
2015-Mar-15 00:32N 34°40' E 033°04'0 0.0
2015-Mar-14 23:32N 34°40' E 033°04'0 0.0
2015-Mar-14 22:32N 34°40' E 033°04'0 0.1
2015-Mar-14 21:32N 34°40' E 033°04'0 0.0
2015-Mar-14 20:32N 34°40' E 033°04'0 0.0
2015-Mar-14 19:32N 34°40' E 033°04'0 0.0
2015-Mar-14 18:32N 34°40' E 033°04'0 0.0
2015-Mar-14 17:32N 34°40' E 033°04'0 0.0
2015-Mar-14 16:32N 34°40' E 033°04'0 0.2
2015-Mar-14 15:32N 34°40' E 033°04'0 0.1
2015-Mar-14 14:32N 34°40' E 033°04'6 6.2
2015-Mar-14 13:34N 34°35' E 033°08'10 9.8
2015-Mar-14 12:33N 34°28' E 033°16'1 1.1
2015-Mar-14 11:29N 34°29' E 033°17'0 0.2
2015-Mar-14 10:32N 34°29' E 033°17'1 0.7
2015-Mar-14 09:32N 34°30' E 033°17'4 3.9
2015-Mar-14 08:29N 34°31' E 033°22'5 0.3
2015-Mar-13 13:13N 34°30' E 033°28'1 1.0
2015-Mar-13 12:13N 34°30' E 033°29'7 3.7
2015-Mar-13 10:12N 34°30' E 033°20'1 1.2
2015-Mar-13 09:34N 34°30' E 033°19'0 0.3
2015-Mar-13 08:34N 34°30' E 033°19'0 0.4
2015-Mar-13 07:33N 34°29' E 033°19'0 0.3
2015-Mar-13 06:34N 34°29' E 033°19'2 1.5
2015-Mar-13 05:34N 34°30' E 033°20'7 7.3
2015-Mar-13 04:32N 34°33' E 033°28'7 0.5
2015-Mar-12 14:19N 34°26' E 033°30'1 1.3
2015-Mar-12 13:31N 34°26' E 033°29'1 1.3
2015-Mar-12 12:25N 34°25' E 033°28'1 1.3
2015-Mar-12 11:31N 34°24' E 033°27'1 1.2
2015-Mar-12 10:22N 34°23' E 033°26'4 1.2
2015-Mar-12 07:07N 34°21' E 033°22'6 0.7
2015-Mar-11 22:31N 34°23' E 033°16'0 0.4
2015-Mar-11 21:31N 34°23' E 033°16'1 0.7
2015-Mar-11 20:31N 34°24' E 033°16'1 0.7
2015-Mar-11 19:31N 34°25' E 033°16'1 0.7
2015-Mar-11 18:31N 34°25' E 033°16'1 0.6
2015-Mar-11 17:31N 34°26' E 033°16'1 0.7
2015-Mar-11 16:22N 34°26' E 033°17'1 0.8
2015-Mar-11 15:13N 34°27' E 033°18'1 0.8
2015-Mar-11 14:28N 34°27' E 033°19'1 0.9
2015-Mar-11 13:28N 34°27' E 033°20'3 3.3
2015-Mar-11 12:31N 34°24' E 033°22'20 1.6
2015-Mar-11 00:07N 34°05' E 033°13'1 1.1
2015-Mar-10 23:28N 34°05' E 033°12'1 0.9
2015-Mar-10 22:31N 34°06' E 033°11'1 0.9
2015-Mar-10 21:28N 34°06' E 033°10'1 0.7
2015-Mar-10 20:31N 34°07' E 033°10'1 0.6
2015-Mar-10 19:31N 34°07' E 033°09'1 0.8
2015-Mar-10 18:13N 34°08' E 033°08'1 0.9
2015-Mar-10 17:31N 34°08' E 033°07'1 0.8
2015-Mar-10 16:31N 34°08' E 033°06'1 0.7
2015-Mar-10 15:31N 34°09' E 033°06'1 0.5
2015-Mar-10 14:25N 34°09' E 033°05'0 0.5
2015-Mar-10 13:31N 34°10' E 033°05'0 0.4
2015-Mar-10 12:31N 34°10' E 033°05'0 0.4
2015-Mar-10 11:31N 34°10' E 033°05'0 0.4
2015-Mar-10 10:25N 34°11' E 033°05'0 0.4
2015-Mar-10 09:31N 34°11' E 033°05'0 0.4
2015-Mar-10 08:31N 34°12' E 033°04'0 0.4
2015-Mar-10 07:31N 34°12' E 033°04'0 0.4
2015-Mar-10 06:31N 34°12' E 033°04'0 0.4
2015-Mar-10 05:31N 34°13' E 033°04'0 0.4
2015-Mar-10 04:31N 34°13' E 033°03'1 0.6
2015-Mar-10 03:28N 34°14' E 033°03'1 0.7
2015-Mar-10 02:22N 34°14' E 033°03'1 0.8
2015-Mar-10 01:31N 34°15' E 033°04'2 0.7
2015-Mar-09 22:28N 34°17' E 033°05'3 0.5
2015-Mar-09 16:13N 34°19' E 033°07'1 0.7
2015-Mar-09 15:28N 34°20' E 033°08'1 0.7
2015-Mar-09 13:33N 34°20' E 033°09'1 0.8
2015-Mar-09 12:33N 34°21' E 033°10'1 0.8
2015-Mar-09 11:34N 34°21' E 033°11'1 1.0
2015-Mar-09 10:34N 34°22' E 033°12'1 1.0
2015-Mar-09 09:31N 34°22' E 033°13'1 0.8
2015-Mar-09 08:34N 34°23' E 033°14'1 0.8
2015-Mar-09 07:34N 34°23' E 033°14'1 0.5
2015-Mar-09 06:22N 34°24' E 033°14'5 2.7
2015-Mar-09 04:34N 34°20' E 033°10'4 3.7
2015-Mar-09 03:33N 34°17' E 033°07'0 0.4
2015-Mar-09 02:33N 34°17' E 033°07'1 0.9
2015-Mar-09 01:34N 34°17' E 033°08'1 1.0
2015-Mar-09 00:27N 34°18' E 033°09'2 1.1
2015-Mar-08 22:28N 34°19' E 033°11'1 1.2
2015-Mar-08 21:30N 34°20' E 033°12'1 1.2
2015-Mar-08 20:33N 34°21' E 033°13'1 1.1
2015-Mar-08 19:33N 34°22' E 033°14'1 1.2
2015-Mar-08 18:34N 34°22' E 033°15'1 1.1
2015-Mar-08 17:34N 34°23' E 033°16'1 1.1
2015-Mar-08 16:34N 34°24' E 033°17'1 1.1
2015-Mar-08 15:33N 34°24' E 033°18'1 1.3
2015-Mar-08 14:33N 34°25' E 033°19'1 1.0
2015-Mar-08 13:34N 34°26' E 033°20'1 1.2
2015-Mar-08 12:33N 34°27' E 033°19'5 4.5
2015-Mar-08 11:33N 34°29' E 033°15'1 1.2
2015-Mar-08 10:34N 34°30' E 033°14'2 1.8
2015-Mar-08 09:34N 34°30' E 033°12'4 3.8
2015-Mar-08 08:33N 34°30' E 033°07'1 0.6
2015-Mar-08 07:33N 34°30' E 033°06'2 1.9
2015-Mar-08 06:33N 34°30' E 033°09'4 3.6
2015-Mar-08 05:33N 34°28' E 033°13'4 2.8
2015-Mar-08 04:12N 34°25' E 033°15'1 1.6
2015-Mar-08 03:33N 34°26' E 033°16'1 1.5
2015-Mar-08 02:33N 34°27' E 033°16'1 1.4
2015-Mar-08 01:33N 34°29' E 033°16'3 2.9
2015-Mar-08 00:33N 34°26' E 033°14'1 0.9
2015-Mar-07 23:33N 34°27' E 033°14'1 1.4
2015-Mar-07 22:33N 34°29' E 033°14'2 1.4
2015-Mar-07 21:12N 34°31' E 033°14'1 1.5
2015-Mar-07 20:33N 34°32' E 033°14'2 1.7
2015-Mar-07 19:31N 34°33' E 033°14'5 4.4
2015-Mar-07 18:21N 34°36' E 033°09'1 1.1
2015-Mar-07 17:33N 34°35' E 033°08'5 4.9
2015-Mar-07 16:33N 34°32' E 033°04'1010.2
2015-Mar-07 15:33N 34°32' E 032°51'1211.6
2015-Mar-07 14:33N 34°35' E 032°38'1111.2
2015-Mar-07 13:33N 34°38' E 032°25'45410.8
2015-Mar-05 19:24N 37°31' E 023°46'1011.7
2015-Mar-05 18:33N 37°41' E 023°41'1111.3
2015-Mar-05 17:33N 37°51' E 023°37'7 7.3
2015-Mar-05 16:33N 37°58' E 023°33'4 4.1
2015-Mar-05 15:30N 38°02' E 023°31'0 0.0
2015-Mar-05 14:18N 38°02' E 023°31'0 0.0
2015-Mar-05 13:33N 38°02' E 023°31'0 0.0
2015-Mar-05 12:30N 38°02' E 023°31'0 0.0
2015-Mar-05 11:15N 38°02' E 023°31'0 0.0
2015-Mar-05 10:24N 38°02' E 023°31'0 0.0
2015-Mar-05 09:30N 38°02' E 023°31'  

Dump ship's entire track history